Time;durP1;ratioP1;P1;durP2;ratioP2;P2;SDS_P1;SDS_P2;PMS_P1;PMS_P2;Temp;Humidity;BMP_temperature;BMP_pressure;BME280_temperature;BME280_humidity;BME280_pressure;Samples;Min_cycle;Max_cycle;Signal;HPM_P1;HPM_P2
2023/04/17 04:08:20;;;;;;;4.62;4.20;;;;;;;10.24;100.00;99996.50;5593968;31;158753;-89
2023/04/17 04:11:23;;;;;;;6.20;4.18;;;;;;;10.24;100.00;99996.50;5572228;32;34914;-89
2023/04/17 04:14:26;;;;;;;4.85;4.03;;;;;;;9.74;100.00;99992.97;5579115;32;34816;-87
2023/04/17 04:17:29;;;;;;;4.47;4.07;;;;;;;9.75;100.00;99993.84;5579441;32;34903;-89
2023/04/17 04:20:32;;;;;;;4.60;4.05;;;;;;;9.77;100.00;99994.59;5579156;32;33925;-87
2023/04/17 04:23:39;;;;;;;4.82;4.20;;;;;;;9.83;100.00;99997.78;5573915;32;34727;-87
2023/04/17 04:26:42;;;;;;;4.35;3.78;;;;;;;9.92;100.00;99998.25;5573033;32;34601;-87
2023/04/17 04:29:48;;;;;;;5.57;3.90;;;;;;;9.97;100.00;99998.84;5580267;31;34700;-88
2023/04/17 04:32:51;;;;;;;4.20;3.80;;;;;;;10.02;100.00;100004.78;5558978;32;34103;-88
2023/04/17 04:36:00;;;;;;;4.95;3.78;;;;;;;10.23;100.00;100008.06;5576316;31;34915;-88
2023/04/17 04:39:04;;;;;;;3.90;3.60;;;;;;;10.23;100.00;100005.41;5564647;32;33856;-88
2023/04/17 04:42:09;;;;;;;4.12;3.72;;;;;;;10.30;100.00;100005.06;5566381;32;33661;-88
2023/04/17 04:45:12;;;;;;;4.20;3.40;;;;;;;10.44;100.00;100022.88;5578598;32;33768;-87
2023/04/17 04:48:16;;;;;;;3.70;3.40;;;;;;;10.54;100.00;100025.88;5576479;31;33764;-90
2023/04/17 04:51:19;;;;;;;5.47;3.60;;;;;;;10.55;100.00;100027.63;5583923;32;35099;-91
2023/04/17 04:54:23;;;;;;;4.75;3.90;;;;;;;10.52;100.00;100032.12;5584586;32;34286;-91
2023/04/17 04:57:28;;;;;;;5.43;3.67;;;;;;;10.57;100.00;100031.88;5575434;32;33926;-88
2023/04/17 05:00:31;;;;;;;4.57;3.87;;;;;;;10.59;100.00;100035.31;5570790;31;34351;-88
2023/04/17 05:03:36;;;;;;;5.90;3.87;;;;;;;10.63;100.00;100034.22;5580514;31;33461;-87
2023/04/17 05:06:40;;;;;;;5.15;3.53;;;;;;;10.72;100.00;100038.13;5585437;32;33947;-87
2023/04/17 05:09:43;;;;;;;5.93;3.60;;;;;;;10.81;100.00;100044.72;5575359;32;34139;-87
2023/04/17 05:12:46;;;;;;;4.57;3.60;;;;;;;10.93;100.00;100045.84;5585101;32;34219;-88
2023/04/17 05:15:50;;;;;;;4.87;4.00;;;;;;;11.07;100.00;100047.72;5567937;32;33862;-88
2023/04/17 05:18:55;;;;;;;4.70;4.05;;;;;;;11.18;100.00;100044.44;5553619;32;34179;-87
2023/04/17 05:21:58;;;;;;;8.70;4.50;;;;;;;11.28;100.00;100050.06;5549402;32;34484;-87
2023/04/17 05:25:02;;;;;;;4.50;4.03;;;;;;;11.37;100.00;100048.69;5544204;32;34010;-87
2023/04/17 05:28:05;;;;;;;7.53;4.28;;;;;;;11.43;100.00;100053.63;5551771;32;33907;-87
2023/04/17 05:31:08;;;;;;;4.97;3.90;;;;;;;11.45;100.00;100055.25;5554513;32;34825;-87
2023/04/17 05:34:11;;;;;;;6.07;4.07;;;;;;;11.57;98.01;100058.13;5549492;32;34076;-86
2023/04/17 05:37:14;;;;;;;7.95;4.45;;;;;;;11.68;96.61;100057.50;5568460;32;34450;-87
2023/04/17 05:40:17;;;;;;;6.40;4.35;;;;;;;11.68;92.76;100054.84;5568582;32;34400;-87
2023/04/17 05:43:20;;;;;;;6.25;4.65;;;;;;;11.79;93.44;100054.19;5555637;32;33877;-87
2023/04/17 05:46:22;;;;;;;10.85;5.00;;;;;;;11.85;88.68;100060.00;5551985;32;34443;-86
2023/04/17 05:49:26;;;;;;;4.90;4.22;;;;;;;12.04;88.79;100058.06;5539839;32;34672;-86
2023/04/17 05:52:28;;;;;;;9.07;4.32;;;;;;;12.12;82.96;100059.28;5542383;32;34411;-86
2023/04/17 05:55:31;;;;;;;8.05;4.45;;;;;;;12.37;84.39;100063.09;5549931;32;34713;-87
2023/04/17 05:58:34;;;;;;;7.45;5.12;;;;;;;12.65;84.37;100065.81;5542252;32;35931;-88
2023/04/17 06:05:17;;;;;;;9.15;5.60;;;;;;;12.95;80.13;100075.47;5541636;32;33493;-89
2023/04/17 06:08:20;;;;;;;9.02;5.97;;;;;;;12.94;76.52;100077.25;5541967;32;33965;-88
2023/04/17 06:11:23;;;;;;;7.78;5.05;;;;;;;13.05;75.65;100075.72;5549633;32;34069;-89
2023/04/17 06:14:27;;;;;;;8.02;4.95;;;;;;;13.05;74.09;100073.91;5543834;32;34450;-89
2023/04/17 06:17:32;;;;;;;6.62;4.68;;;;;;;13.34;74.42;100076.44;5549010;32;33927;-88
2023/04/17 06:20:35;;;;;;;5.75;4.25;;;;;;;13.43;71.53;100080.31;5546947;32;33801;-88
2023/04/17 06:23:41;;;;;;;3.90;3.50;;;;;;;13.58;71.09;100074.97;5545763;32;34505;-88
2023/04/17 06:26:44;;;;;;;3.95;3.55;;;;;;;13.62;70.41;100081.78;5543391;32;33609;-89
2023/04/17 06:29:48;;;;;;;7.18;3.87;;;;;;;13.41;70.43;100084.91;5546101;32;34806;-90
2023/04/17 06:32:51;;;;;;;6.93;3.22;;;;;;;13.46;69.93;100088.16;5572441;26;34753;-90
2023/04/17 06:39:18;;;;;;;6.57;3.58;;;;;;;13.90;67.86;100092.38;5547481;32;33558;-88
2023/04/17 06:42:21;;;;;;;6.72;3.72;;;;;;;14.10;68.25;100091.03;5556463;32;33668;-90
2023/04/17 06:45:28;;;;;;;7.43;3.55;;;;;;;14.24;66.18;100093.56;5552284;32;33755;-90
2023/04/17 06:48:31;;;;;;;3.75;3.35;;;;;;;14.19;66.43;100101.06;5550921;32;33729;-91
2023/04/17 06:51:35;;;;;;;4.15;3.45;;;;;;;14.69;65.10;100097.59;5566141;26;34450;-91
2023/04/17 06:54:38;;;;;;;4.82;3.95;;;;;;;14.91;64.32;100101.41;5553101;32;33606;-89
2023/04/17 06:57:41;;;;;;;6.05;3.78;;;;;;;14.66;64.88;100101.34;5556604;32;33578;-90
2023/04/17 07:00:43;;;;;;;7.50;4.03;;;;;;;14.66;65.66;100100.47;5551290;32;33874;-89
2023/04/17 07:11:15;;;;;;;4.47;3.92;;;;;;;15.40;62.97;100101.44;5553746;32;20111;-90
2023/04/17 07:14:18;;;;;;;4.20;3.80;;;;;;;15.41;61.83;100108.50;5549482;32;34479;-89
2023/04/17 07:17:21;;;;;;;4.55;3.60;;;;;;;15.36;60.89;100104.34;5586739;26;33946;-88
2023/04/17 07:20:24;;;;;;;4.53;4.07;;;;;;;15.88;59.55;100111.22;5529623;32;34006;-88
2023/04/17 07:23:26;;;;;;;4.40;3.92;;;;;;;15.31;60.78;100111.00;5530226;32;34454;-89
2023/04/17 07:26:29;;;;;;;4.20;3.72;;;;;;;15.86;60.16;100108.69;5564465;26;33598;-88
2023/04/17 07:29:32;;;;;;;4.20;3.80;;;;;;;15.88;59.62;100109.41;5529453;32;33868;-88
2023/04/17 07:32:35;;;;;;;4.30;3.80;;;;;;;16.23;59.62;100112.16;5527788;32;33807;-88
2023/04/17 07:39:05;;;;;;;6.22;3.85;;;;;;;16.36;57.41;100107.56;5533685;32;33457;-90
2023/04/17 07:53:41;;;;;;;4.50;3.78;;;;;;;18.23;52.28;100123.75;4861316;29;20115;-90
2023/04/17 07:56:50;;;;;;;6.30;3.60;;;;;;;19.93;48.90;100129.25;5529152;32;33860;-88
2023/04/17 07:59:53;;;;;;;5.20;3.28;;;;;;;21.12;45.26;100123.50;5539720;32;33721;-89
2023/04/17 08:02:57;;;;;;;3.70;3.37;;;;;;;22.30;44.13;100119.81;5533372;32;33872;-89
2023/04/17 08:06:00;;;;;;;5.10;3.78;;;;;;;22.61;41.67;100119.34;5532490;32;33825;-87
2023/04/17 08:09:03;;;;;;;4.28;3.55;;;;;;;21.86;43.59;100120.69;5531050;32;34619;-87
2023/04/17 08:12:06;;;;;;;4.78;3.70;;;;;;;21.04;44.78;100118.87;5532118;32;34061;-87
2023/04/17 08:15:09;;;;;;;6.28;3.95;;;;;;;20.65;45.83;100119.03;5527262;32;34170;-87
2023/04/17 08:18:12;;;;;;;3.95;3.50;;;;;;;21.02;45.93;100120.03;5535004;32;34309;-89
2023/04/17 08:21:16;;;;;;;4.43;3.87;;;;;;;22.08;44.78;100118.50;5527425;32;33925;-88
2023/04/17 08:24:19;;;;;;;4.18;3.58;;;;;;;22.39;43.85;100120.72;5520310;32;34033;-87
2023/04/17 08:27:23;;;;;;;5.03;3.83;;;;;;;23.03;43.00;100124.87;5529414;32;34627;-87
2023/04/17 08:30:26;;;;;;;6.93;4.07;;;;;;;22.42;43.53;100116.84;5533204;32;33987;-86
2023/04/17 08:33:29;;;;;;;7.07;3.90;;;;;;;23.12;43.12;100120.34;5532347;32;34019;-87
2023/04/17 08:36:32;;;;;;;6.80;4.00;;;;;;;22.99;42.24;100116.25;5528590;32;35155;-87
2023/04/17 08:39:34;;;;;;;6.05;3.80;;;;;;;22.86;44.47;100115.88;5528401;32;33913;-86
2023/04/17 08:42:40;;;;;;;5.85;4.05;;;;;;;22.26;42.36;100118.44;5527344;32;34415;-86
2023/04/17 08:45:52;;;;;;;4.07;3.60;;;;;;;22.53;43.96;100116.56;5523619;32;34382;-86
2023/04/17 08:48:55;;;;;;;4.22;3.50;;;;;;;23.11;40.98;100124.94;5527014;32;33769;-86
2023/04/17 08:52:02;;;;;;;4.00;3.62;;;;;;;23.66;40.69;100111.84;5526258;32;33628;-86
2023/04/17 08:55:06;;;;;;;3.10;2.90;;;;;;;22.39;42.60;100118.00;5528166;32;34461;-86
2023/04/17 08:58:09;;;;;;;3.20;2.90;;;;;;;22.65;44.09;100119.00;5523577;32;34650;-86
2023/04/17 09:01:18;;;;;;;4.05;2.80;;;;;;;22.20;43.76;100119.06;5519614;32;33716;-88
2023/04/17 09:04:42;;;;;;;3.72;2.90;;;;;;;21.90;45.71;100105.00;5526860;32;33637;-86
2023/04/17 09:07:45;;;;;;;4.07;3.50;;;;;;;21.02;46.62;100110.06;5515561;32;34031;-88
2023/04/17 09:10:53;;;;;;;3.53;3.03;;;;;;;21.58;46.63;100106.41;5540658;26;33780;-88
2023/04/17 09:13:56;;;;;;;5.62;3.17;;;;;;;22.49;44.42;100112.50;5518286;32;33832;-87
2023/04/17 09:16:58;;;;;;;5.75;3.10;;;;;;;22.62;43.51;100125.56;5521736;32;33579;-86
2023/04/17 09:20:02;;;;;;;4.28;3.20;;;;;;;22.33;44.32;100114.06;5517472;32;34106;-86
2023/04/17 09:23:05;;;;;;;4.93;3.28;;;;;;;22.26;44.70;100118.44;5518334;32;33637;-86
2023/04/17 09:26:10;;;;;;;3.50;3.20;;;;;;;21.16;45.89;100115.97;5523444;32;34189;-85
2023/04/17 09:29:13;;;;;;;3.53;3.22;;;;;;;20.68;47.84;100118.75;5530023;32;33497;-86
2023/04/17 09:32:21;;;;;;;5.85;3.17;;;;;;;20.36;48.68;100112.75;5529483;32;34129;-90
2023/04/17 09:35:24;;;;;;;3.65;3.35;;;;;;;21.66;45.95;100111.87;5526859;32;34069;-90
2023/04/17 09:38:39;;;;;;;3.85;3.42;;;;;;;21.67;46.14;100108.16;5554256;26;33493;-88
2023/04/17 09:41:42;;;;;;;3.40;3.08;;;;;;;21.38;46.89;100106.56;5530010;32;33746;-88
2023/04/17 09:52:22;;;;;;;3.30;3.00;;;;;;;22.01;44.13;100104.75;5539421;32;20119;-87
2023/04/17 09:55:29;;;;;;;4.60;3.30;;;;;;;23.38;40.07;100106.72;5551338;32;34091;-90
2023/04/17 10:13:26;;;;;;;3.47;3.17;;;;;;;23.76;39.44;100090.00;4892796;29;20162;-89
2023/04/17 10:16:37;;;;;;;3.72;2.90;;;;;;;23.92;38.27;100089.16;5554931;32;34011;-88
2023/04/17 10:19:40;;;;;;;8.48;2.97;;;;;;;21.52;43.43;100083.59;5543295;32;34639;-88
2023/04/17 10:22:44;;;;;;;5.65;3.35;;;;;;;20.99;44.04;100078.03;5547780;32;34790;-87
2023/04/17 10:25:47;;;;;;;3.30;3.00;;;;;;;21.93;42.89;100075.84;5546113;32;34336;-87
2023/04/17 10:28:51;;;;;;;5.32;3.28;;;;;;;21.97;42.29;100079.06;5546853;32;34035;-86
2023/04/17 10:32:07;;;;;;;5.78;3.45;;;;;;;22.41;42.65;100078.16;5534435;32;34128;-86
2023/04/17 10:35:16;;;;;;;4.15;3.00;;;;;;;21.85;43.04;100074.94;5532736;32;34122;-90
2023/04/17 10:38:33;;;;;;;5.53;3.45;;;;;;;20.21;46.37;100074.66;5545629;32;33754;-87
2023/04/17 10:42:02;;;;;;;4.90;3.17;;;;;;;19.75;48.43;100072.62;5547990;32;33916;-89
2023/04/17 10:45:17;;;;;;;3.50;3.20;;;;;;;19.62;48.68;100072.09;5545768;32;33843;-87
2023/04/17 10:48:33;;;;;;;6.05;3.40;;;;;;;19.05;49.61;100060.19;5544519;32;33138;-86
2023/04/17 10:51:38;;;;;;;3.50;3.20;;;;;;;18.63;48.89;100071.94;5551850;32;33769;-87
2023/04/17 10:55:13;;;;;;;4.18;2.97;;;;;;;18.99;49.70;100079.50;5546988;32;34084;-87
2023/04/17 10:58:16;;;;;;;3.50;3.20;;;;;;;19.63;48.64;100073.78;5543824;32;34075;-87
2023/04/17 11:01:18;;;;;;;3.78;3.42;;;;;;;19.26;48.35;100068.13;5543734;32;33887;-87
2023/04/17 11:04:24;;;;;;;5.25;3.12;;;;;;;18.84;49.29;100069.16;5542165;32;33887;-87
2023/04/17 11:07:27;;;;;;;3.55;3.00;;;;;;;19.05;51.78;100070.94;5550868;32;34649;-87
2023/04/17 11:10:34;;;;;;;3.78;3.30;;;;;;;18.71;50.56;100079.31;5561771;26;33832;-87
2023/04/17 11:13:40;;;;;;;3.85;3.00;;;;;;;18.30;52.61;100077.44;5518162;32;33657;-87
2023/04/17 11:16:45;;;;;;;3.95;3.10;;;;;;;18.60;52.22;100072.19;5550982;26;34669;-87
2023/04/17 11:19:48;;;;;;;4.72;3.30;;;;;;;19.20;50.97;100062.44;5543150;32;33642;-87
2023/04/17 11:23:07;;;;;;;5.07;3.33;;;;;;;19.73;50.18;100069.25;5550118;32;33921;-88
2023/04/17 11:26:14;;;;;;;4.85;3.40;;;;;;;19.08;50.00;100067.97;5549705;32;34635;-89
2023/04/17 11:29:19;;;;;;;3.80;3.20;;;;;;;19.42;49.75;100065.84;5558677;26;34376;-87
2023/04/17 11:32:22;;;;;;;3.60;3.30;;;;;;;19.47;49.20;100063.59;5550097;32;33651;-88
2023/04/17 11:38:52;;;;;;;3.50;3.20;;;;;;;20.25;46.83;100069.84;5554208;32;33703;-88
2023/04/17 11:41:57;;;;;;;3.60;3.15;;;;;;;20.45;47.59;100062.53;5551456;32;34081;-86
2023/04/17 11:45:15;;;;;;;4.03;2.80;;;;;;;21.04;44.78;100054.16;5608808;26;34817;-89
2023/04/17 11:48:21;;;;;;;4.87;3.12;;;;;;;20.87;45.27;100063.94;5547357;32;33578;-88
2023/04/17 11:51:25;;;;;;;3.30;3.00;;;;;;;21.21;45.20;100049.75;5555375;32;33992;-85
2023/04/17 11:54:29;;;;;;;4.40;3.12;;;;;;;20.25;46.67;100054.53;5554146;32;34664;-85
2023/04/17 11:57:42;;;;;;;4.05;2.90;;;;;;;19.86;47.71;100052.78;5548119;32;34942;-85
2023/04/17 12:01:02;;;;;;;3.83;3.22;;;;;;;19.44;48.99;100063.87;5547038;32;34160;-85
2023/04/17 12:04:19;;;;;;;3.62;3.30;;;;;;;19.22;50.05;100057.78;5544176;32;33734;-85
2023/04/17 12:07:23;;;;;;;4.10;3.70;;;;;;;19.17;50.29;100054.66;5547315;32;34062;-85
2023/04/17 12:10:37;;;;;;;4.10;3.45;;;;;;;19.07;50.46;100062.72;5550005;32;34022;-85
2023/04/17 12:13:40;;;;;;;4.75;3.37;;;;;;;18.79;50.68;100057.13;5551776;32;34321;-89
2023/04/17 12:16:43;;;;;;;4.60;3.65;;;;;;;18.95;50.63;100049.38;5547861;32;34888;-90
2023/04/17 12:19:45;;;;;;;4.25;3.85;;;;;;;19.04;50.60;100053.09;5547298;32;33900;-90
2023/04/17 12:22:48;;;;;;;3.83;3.47;;;;;;;19.31;50.72;100059.62;5542271;32;33111;-90
2023/04/17 12:25:51;;;;;;;3.87;3.33;;;;;;;19.52;50.48;100050.56;5548462;32;34727;-86
2023/04/17 12:28:55;;;;;;;3.72;3.10;;;;;;;19.50;49.93;100039.94;5553797;32;33453;-86
2023/04/17 12:31:58;;;;;;;4.07;3.72;;;;;;;19.16;50.62;100051.13;5553184;32;33543;-88
2023/04/17 12:35:01;;;;;;;4.12;3.72;;;;;;;19.36;49.59;100045.78;5551654;32;34013;-87
2023/04/17 12:38:04;;;;;;;4.90;4.12;;;;;;;19.58;49.11;100050.00;5541054;32;33971;-87
2023/04/17 12:41:07;;;;;;;5.68;4.00;;;;;;;19.74;49.58;100046.72;5536938;32;34030;-87
2023/04/17 12:44:10;;;;;;;4.57;3.62;;;;;;;19.51;48.78;100043.50;5534550;32;33902;-87
2023/04/17 12:47:13;;;;;;;5.93;4.10;;;;;;;19.36;49.13;100035.00;5545969;32;34689;-87
2023/04/17 12:50:16;;;;;;;5.18;3.97;;;;;;;19.42;49.87;100031.75;5541117;32;33859;-87
2023/04/17 12:53:19;;;;;;;5.32;3.62;;;;;;;19.11;50.05;100029.22;5533549;32;33964;-88
2023/04/17 12:56:22;;;;;;;4.18;3.75;;;;;;;19.13;50.74;100024.53;5549838;32;34020;-88
2023/04/17 12:59:25;;;;;;;4.45;4.00;;;;;;;19.32;49.70;100021.00;5557098;32;34344;-88
2023/04/17 13:02:28;;;;;;;4.50;4.10;;;;;;;19.28;50.30;100019.59;5554498;32;33942;-87
2023/04/17 13:05:31;;;;;;;4.55;4.10;;;;;;;19.09;51.20;100013.22;5609148;26;33848;-86
2023/04/17 13:08:34;;;;;;;4.97;3.97;;;;;;;19.05;51.12;100003.72;5538617;32;34817;-86
2023/04/17 13:11:37;;;;;;;5.45;4.30;;;;;;;19.15;50.93;100003.72;5539394;32;34233;-86
2023/04/17 13:14:41;;;;;;;4.10;3.70;;;;;;;19.26;50.51;100008.09;5538800;32;35248;-85
2023/04/17 13:17:44;;;;;;;6.15;4.22;;;;;;;18.83;53.17;99996.75;5545565;32;34698;-86
2023/04/17 13:20:47;;;;;;;6.18;4.53;;;;;;;18.57;54.25;99990.06;5546185;32;33853;-86
2023/04/17 13:23:50;;;;;;;8.77;4.70;;;;;;;18.34;56.44;99996.66;5545808;32;34528;-85
2023/04/17 13:26:56;;;;;;;6.82;4.65;;;;;;;18.14;58.73;99996.56;5543687;32;34589;-86
2023/04/17 13:29:59;;;;;;;9.18;5.03;;;;;;;17.74;61.67;100003.53;5544329;32;34586;-86
2023/04/17 13:33:02;;;;;;;5.35;4.85;;;;;;;17.76;63.46;100010.47;5552762;32;34246;-86
2023/04/17 13:36:06;;;;;;;5.22;4.65;;;;;;;17.41;62.83;100011.66;5532348;32;34137;-86
2023/04/17 13:39:09;;;;;;;8.70;5.07;;;;;;;17.00;71.03;100022.12;5542027;32;34386;-86
2023/04/17 13:42:17;;;;;;;6.60;5.10;;;;;;;16.29;82.14;100026.91;5544468;32;34081;-87
2023/04/17 13:45:20;;;;;;;6.47;5.50;;;;;;;15.75;90.87;100018.56;5548026;32;34273;-86
2023/04/17 13:48:23;;;;;;;9.02;5.18;;;;;;;15.33;95.51;100011.03;5540691;32;33731;-86
2023/04/17 13:51:26;;;;;;;6.35;5.32;;;;;;;14.95;99.62;100009.44;5539136;32;34324;-86
2023/04/17 13:54:29;;;;;;;7.10;5.37;;;;;;;14.99;100.00;100005.53;5542367;32;33747;-86
2023/04/17 13:57:32;;;;;;;6.97;5.75;;;;;;;15.05;99.62;100004.25;5541256;32;34199;-86
2023/04/17 14:00:34;;;;;;;5.93;5.32;;;;;;;15.02;100.00;100008.00;5544958;32;33914;-87
2023/04/17 14:03:38;;;;;;;5.97;5.22;;;;;;;15.07;100.00;100005.84;5553291;32;34434;-87
2023/04/17 14:06:48;;;;;;;6.43;5.68;;;;;;;15.03;100.00;100012.38;5550587;32;34638;-86
2023/04/17 14:09:51;;;;;;;8.40;5.35;;;;;;;15.15;100.00;99999.06;5547781;32;34865;-87
2023/04/17 14:12:53;;;;;;;6.00;5.37;;;;;;;15.31;100.00;100004.09;5548810;32;33438;-87
2023/04/17 14:15:56;;;;;;;8.18;5.85;;;;;;;15.54;100.00;100005.00;5538400;32;33139;-88
2023/04/17 14:18:59;;;;;;;6.05;5.45;;;;;;;15.86;96.06;100004.38;5535037;32;34730;-87
2023/04/17 14:22:15;;;;;;;7.35;5.45;;;;;;;15.91;89.77;100006.69;5530548;32;33848;-87
2023/04/17 14:25:17;;;;;;;6.55;5.57;;;;;;;16.13;90.07;100003.19;5543008;32;34054;-87
2023/04/17 14:28:22;;;;;;;6.53;5.55;;;;;;;16.24;85.68;99996.13;5549542;32;33774;-86
2023/04/17 14:31:24;;;;;;;6.35;5.28;;;;;;;16.37;87.56;100001.34;5551035;32;34747;-86
2023/04/17 14:34:28;;;;;;;5.78;5.18;;;;;;;16.55;82.06;99997.19;5552787;32;33942;-86
2023/04/17 14:37:30;;;;;;;5.60;4.68;;;;;;;16.35;76.66;99995.28;5551184;32;34820;-86
2023/04/17 14:40:33;;;;;;;6.12;4.90;;;;;;;16.44;75.52;99997.19;5551579;32;33659;-86
2023/04/17 14:43:36;;;;;;;5.90;4.60;;;;;;;16.53;73.68;99987.56;5554019;32;33642;-85
2023/04/17 14:46:39;;;;;;;6.10;4.93;;;;;;;16.47;71.97;99980.91;5551822;32;34057;-86
2023/04/17 14:49:42;;;;;;;8.70;5.37;;;;;;;16.36;71.23;99983.59;5541137;32;34938;-86
2023/04/17 14:52:45;;;;;;;6.85;4.80;;;;;;;16.25;70.98;99992.47;5531940;32;34151;-86
2023/04/17 14:55:48;;;;;;;5.53;4.70;;;;;;;16.16;72.23;99986.03;5541133;32;33805;-83
2023/04/17 14:58:51;;;;;;;6.25;4.60;;;;;;;16.21;71.32;99993.69;5553653;32;34193;-86
2023/04/17 15:01:54;;;;;;;5.85;5.00;;;;;;;16.19;70.93;99991.13;5555856;32;34174;-86
2023/04/17 15:04:57;;;;;;;8.85;5.30;;;;;;;16.24;70.62;99993.47;5554961;32;33476;-86
2023/04/17 15:08:01;;;;;;;5.97;5.10;;;;;;;16.21;69.47;99983.00;5554580;32;33990;-86
2023/04/17 15:11:05;;;;;;;5.55;4.70;;;;;;;16.17;70.98;99985.94;5558246;32;33820;-86
2023/04/17 15:14:07;;;;;;;5.72;5.10;;;;;;;16.11;70.31;99989.09;5557562;32;34096;-86
2023/04/17 15:17:11;;;;;;;8.10;5.10;;;;;;;16.29;71.71;99988.56;5557461;32;33934;-86
2023/04/17 15:20:14;;;;;;;7.40;5.00;;;;;;;16.24;70.70;99991.63;5556645;32;34119;-86
2023/04/17 15:23:17;;;;;;;7.15;5.05;;;;;;;16.24;71.39;99993.47;5566483;32;33593;-86
2023/04/17 15:26:20;;;;;;;5.35;4.85;;;;;;;16.27;71.46;99991.38;5574024;32;34584;-86
2023/04/17 15:29:23;;;;;;;6.82;5.53;;;;;;;16.22;72.34;99995.38;5572978;32;34554;-84
2023/04/17 15:32:26;;;;;;;6.82;5.03;;;;;;;16.10;73.34;99995.38;5566866;32;33723;-84
2023/04/17 15:35:29;;;;;;;7.07;4.95;;;;;;;16.13;73.62;99989.81;5577217;32;33952;-85
2023/04/17 15:38:31;;;;;;;5.93;5.32;;;;;;;15.84;75.83;99978.72;5576106;32;34233;-85
2023/04/17 15:41:38;;;;;;;6.00;5.40;;;;;;;15.98;77.06;99988.34;5543965;32;33897;-86
2023/04/17 15:44:40;;;;;;;5.55;5.05;;;;;;;16.06;77.46;99985.06;5543030;32;35031;-85
2023/04/17 15:47:44;;;;;;;6.30;5.20;;;;;;;15.80;76.80;99994.16;5543743;32;34209;-86
2023/04/17 15:50:46;;;;;;;8.40;5.30;;;;;;;15.78;75.91;99993.41;5553254;32;33718;-85
